sensor_id;sensor_type;location;lat;lon;timestamp;P1;durP1;ratioP1;P2;durP2;ratioP2
9124;SDS011;4597;48.730;9.114;2023-12-20T00:01:04;1.63;;;1.53;;
9124;SDS011;4597;48.730;9.114;2023-12-20T00:03:30;1.70;;;1.60;;
9124;SDS011;4597;48.730;9.114;2023-12-20T00:05:55;1.60;;;1.50;;
9124;SDS011;4597;48.730;9.114;2023-12-20T00:08:21;1.33;;;1.33;;
9124;SDS011;4597;48.730;9.114;2023-12-20T00:10:46;1.60;;;1.50;;
9124;SDS011;4597;48.730;9.114;2023-12-20T00:13:12;1.10;;;1.10;;
9124;SDS011;4597;48.730;9.114;2023-12-20T00:15:37;2.10;;;2.00;;
9124;SDS011;4597;48.730;9.114;2023-12-20T00:18:03;6.50;;;4.67;;
9124;SDS011;4597;48.730;9.114;2023-12-20T00:20:29;8.57;;;6.40;;
9124;SDS011;4597;48.730;9.114;2023-12-20T00:22:55;9.80;;;6.87;;
9124;SDS011;4597;48.730;9.114;2023-12-20T00:25:22;9.93;;;6.90;;
9124;SDS011;4597;48.730;9.114;2023-12-20T00:27:48;5.93;;;5.30;;
9124;SDS011;4597;48.730;9.114;2023-12-20T00:30:14;7.80;;;5.80;;
9124;SDS011;4597;48.730;9.114;2023-12-20T00:32:39;7.73;;;5.80;;
9124;SDS011;4597;48.730;9.114;2023-12-20T00:35:11;5.97;;;4.83;;
9124;SDS011;4597;48.730;9.114;2023-12-20T00:37:37;6.17;;;5.57;;
9124;SDS011;4597;48.730;9.114;2023-12-20T00:40:02;5.27;;;4.47;;
9124;SDS011;4597;48.730;9.114;2023-12-20T00:42:28;5.53;;;5.00;;
9124;SDS011;4597;48.730;9.114;2023-12-20T00:44:54;6.30;;;4.53;;
9124;SDS011;4597;48.730;9.114;2023-12-20T00:47:19;4.73;;;4.20;;
9124;SDS011;4597;48.730;9.114;2023-12-20T00:49:45;4.57;;;4.13;;
9124;SDS011;4597;48.730;9.114;2023-12-20T00:52:10;4.70;;;4.17;;
9124;SDS011;4597;48.730;9.114;2023-12-20T00:54:36;3.83;;;3.47;;
9124;SDS011;4597;48.730;9.114;2023-12-20T00:57:01;3.80;;;3.40;;
9124;SDS011;4597;48.730;9.114;2023-12-20T00:59:27;2.90;;;2.70;;
9124;SDS011;4597;48.730;9.114;2023-12-20T01:01:52;3.00;;;2.70;;
9124;SDS011;4597;48.730;9.114;2023-12-20T01:04:18;2.20;;;2.00;;
9124;SDS011;4597;48.730;9.114;2023-12-20T01:06:44;2.40;;;2.20;;
9124;SDS011;4597;48.730;9.114;2023-12-20T01:09:09;3.10;;;1.70;;
9124;SDS011;4597;48.730;9.114;2023-12-20T01:11:35;1.40;;;1.40;;
9124;SDS011;4597;48.730;9.114;2023-12-20T01:14:00;1.87;;;1.77;;
9124;SDS011;4597;48.730;9.114;2023-12-20T01:16:26;1.37;;;1.33;;
9124;SDS011;4597;48.730;9.114;2023-12-20T01:18:51;2.47;;;2.27;;
9124;SDS011;4597;48.730;9.114;2023-12-20T01:21:17;1.60;;;1.50;;
9124;SDS011;4597;48.730;9.114;2023-12-20T01:23:42;1.97;;;1.80;;
9124;SDS011;4597;48.730;9.114;2023-12-20T01:26:08;1.63;;;1.53;;
9124;SDS011;4597;48.730;9.114;2023-12-20T01:28:34;2.57;;;1.67;;
9124;SDS011;4597;48.730;9.114;2023-12-20T01:30:59;1.80;;;1.70;;
9124;SDS011;4597;48.730;9.114;2023-12-20T01:33:25;2.60;;;1.80;;
9124;SDS011;4597;48.730;9.114;2023-12-20T01:35:50;1.70;;;1.60;;
9124;SDS011;4597;48.730;9.114;2023-12-20T01:38:16;1.70;;;1.60;;
9124;SDS011;4597;48.730;9.114;2023-12-20T01:40:43;1.60;;;1.50;;
9124;SDS011;4597;48.730;9.114;2023-12-20T01:43:09;1.40;;;1.30;;
9124;SDS011;4597;48.730;9.114;2023-12-20T01:45:36;1.27;;;1.20;;
9124;SDS011;4597;48.730;9.114;2023-12-20T01:48:02;5.67;;;1.70;;
9124;SDS011;4597;48.730;9.114;2023-12-20T01:50:28;1.13;;;1.13;;
9124;SDS011;4597;48.730;9.114;2023-12-20T01:52:56;1.00;;;0.83;;
9124;SDS011;4597;48.730;9.114;2023-12-20T01:55:24;0.90;;;0.90;;
9124;SDS011;4597;48.730;9.114;2023-12-20T01:57:50;1.10;;;1.10;;
9124;SDS011;4597;48.730;9.114;2023-12-20T02:00:16;0.60;;;0.60;;
9124;SDS011;4597;48.730;9.114;2023-12-20T02:02:43;1.03;;;1.00;;
9124;SDS011;4597;48.730;9.114;2023-12-20T02:05:10;0.77;;;0.77;;
9124;SDS011;4597;48.730;9.114;2023-12-20T02:07:37;1.00;;;1.00;;
9124;SDS011;4597;48.730;9.114;2023-12-20T02:10:02;0.70;;;0.70;;
9124;SDS011;4597;48.730;9.114;2023-12-20T02:12:31;0.50;;;0.50;;
9124;SDS011;4597;48.730;9.114;2023-12-20T02:14:56;0.50;;;0.50;;
9124;SDS011;4597;48.730;9.114;2023-12-20T02:17:22;1.60;;;0.60;;
9124;SDS011;4597;48.730;9.114;2023-12-20T02:19:49;1.57;;;0.50;;
9124;SDS011;4597;48.730;9.114;2023-12-20T02:22:14;0.60;;;0.60;;
9124;SDS011;4597;48.730;9.114;2023-12-20T02:24:40;0.60;;;0.60;;
9124;SDS011;4597;48.730;9.114;2023-12-20T02:27:06;0.70;;;0.70;;
9124;SDS011;4597;48.730;9.114;2023-12-20T02:29:33;0.43;;;0.43;;
9124;SDS011;4597;48.730;9.114;2023-12-20T02:32:01;0.60;;;0.60;;
9124;SDS011;4597;48.730;9.114;2023-12-20T02:34:27;0.30;;;0.30;;
9124;SDS011;4597;48.730;9.114;2023-12-20T02:36:53;0.50;;;0.50;;
9124;SDS011;4597;48.730;9.114;2023-12-20T02:39:19;0.60;;;0.60;;
9124;SDS011;4597;48.730;9.114;2023-12-20T02:41:44;0.57;;;0.57;;
9124;SDS011;4597;48.730;9.114;2023-12-20T02:44:10;0.50;;;0.50;;
9124;SDS011;4597;48.730;9.114;2023-12-20T02:46:36;0.60;;;0.60;;
9124;SDS011;4597;48.730;9.114;2023-12-20T02:49:01;0.60;;;0.60;;
9124;SDS011;4597;48.730;9.114;2023-12-20T02:51:27;0.43;;;0.43;;
9124;SDS011;4597;48.730;9.114;2023-12-20T02:53:52;1.37;;;0.67;;
9124;SDS011;4597;48.730;9.114;2023-12-20T02:56:18;0.50;;;0.50;;
9124;SDS011;4597;48.730;9.114;2023-12-20T02:58:43;0.77;;;0.77;;
9124;SDS011;4597;48.730;9.114;2023-12-20T03:01:09;0.47;;;0.47;;
9124;SDS011;4597;48.730;9.114;2023-12-20T03:03:34;0.40;;;0.40;;
9124;SDS011;4597;48.730;9.114;2023-12-20T03:06:00;0.57;;;0.57;;
9124;SDS011;4597;48.730;9.114;2023-12-20T03:08:25;0.40;;;0.40;;
9124;SDS011;4597;48.730;9.114;2023-12-20T03:10:51;0.57;;;0.57;;
9124;SDS011;4597;48.730;9.114;2023-12-20T03:13:18;0.47;;;0.47;;
9124;SDS011;4597;48.730;9.114;2023-12-20T03:15:44;0.57;;;0.57;;
9124;SDS011;4597;48.730;9.114;2023-12-20T03:18:10;0.40;;;0.40;;
9124;SDS011;4597;48.730;9.114;2023-12-20T03:20:35;0.60;;;0.60;;
9124;SDS011;4597;48.730;9.114;2023-12-20T03:23:01;0.60;;;0.60;;
9124;SDS011;4597;48.730;9.114;2023-12-20T03:25:26;0.40;;;0.40;;
9124;SDS011;4597;48.730;9.114;2023-12-20T03:27:52;0.47;;;0.47;;
9124;SDS011;4597;48.730;9.114;2023-12-20T03:30:18;0.77;;;0.77;;
9124;SDS011;4597;48.730;9.114;2023-12-20T03:32:44;0.60;;;0.60;;
9124;SDS011;4597;48.730;9.114;2023-12-20T03:35:10;0.80;;;0.80;;
9124;SDS011;4597;48.730;9.114;2023-12-20T03:37:36;0.60;;;0.60;;
9124;SDS011;4597;48.730;9.114;2023-12-20T03:40:02;0.40;;;0.40;;
9124;SDS011;4597;48.730;9.114;2023-12-20T03:42:27;0.53;;;0.53;;
9124;SDS011;4597;48.730;9.114;2023-12-20T03:44:53;0.70;;;0.70;;
9124;SDS011;4597;48.730;9.114;2023-12-20T03:47:19;0.43;;;0.43;;
9124;SDS011;4597;48.730;9.114;2023-12-20T03:49:44;0.50;;;0.50;;
9124;SDS011;4597;48.730;9.114;2023-12-20T03:52:10;1.73;;;0.50;;
9124;SDS011;4597;48.730;9.114;2023-12-20T03:54:35;0.53;;;0.53;;
9124;SDS011;4597;48.730;9.114;2023-12-20T03:57:01;0.70;;;0.70;;
9124;SDS011;4597;48.730;9.114;2023-12-20T03:59:26;0.70;;;0.70;;
9124;SDS011;4597;48.730;9.114;2023-12-20T04:01:52;0.70;;;0.70;;
9124;SDS011;4597;48.730;9.114;2023-12-20T04:04:18;0.60;;;0.60;;
9124;SDS011;4597;48.730;9.114;2023-12-20T04:06:44;0.57;;;0.57;;
9124;SDS011;4597;48.730;9.114;2023-12-20T04:09:09;0.80;;;0.80;;
9124;SDS011;4597;48.730;9.114;2023-12-20T04:11:36;0.50;;;0.50;;
9124;SDS011;4597;48.730;9.114;2023-12-20T04:14:01;0.57;;;0.57;;
9124;SDS011;4597;48.730;9.114;2023-12-20T04:16:27;0.50;;;0.50;;
9124;SDS011;4597;48.730;9.114;2023-12-20T04:18:52;0.50;;;0.50;;
9124;SDS011;4597;48.730;9.114;2023-12-20T04:21:18;0.57;;;0.57;;
9124;SDS011;4597;48.730;9.114;2023-12-20T04:23:43;0.60;;;0.60;;
9124;SDS011;4597;48.730;9.114;2023-12-20T04:26:09;0.30;;;0.30;;
9124;SDS011;4597;48.730;9.114;2023-12-20T04:28:35;1.93;;;0.60;;
9124;SDS011;4597;48.730;9.114;2023-12-20T04:31:00;1.93;;;0.60;;
9124;SDS011;4597;48.730;9.114;2023-12-20T04:33:26;0.60;;;0.60;;
9124;SDS011;4597;48.730;9.114;2023-12-20T04:35:51;1.43;;;0.40;;
9124;SDS011;4597;48.730;9.114;2023-12-20T04:38:17;0.53;;;0.53;;
9124;SDS011;4597;48.730;9.114;2023-12-20T04:40:42;0.40;;;0.40;;
9124;SDS011;4597;48.730;9.114;2023-12-20T04:43:08;0.50;;;0.50;;
9124;SDS011;4597;48.730;9.114;2023-12-20T04:45:34;0.73;;;0.73;;
9124;SDS011;4597;48.730;9.114;2023-12-20T04:48:00;0.77;;;0.67;;
9124;SDS011;4597;48.730;9.114;2023-12-20T04:50:26;0.67;;;0.60;;
9124;SDS011;4597;48.730;9.114;2023-12-20T04:52:52;0.40;;;0.40;;
9124;SDS011;4597;48.730;9.114;2023-12-20T04:55:17;0.80;;;0.80;;
9124;SDS011;4597;48.730;9.114;2023-12-20T04:57:43;0.67;;;0.63;;
9124;SDS011;4597;48.730;9.114;2023-12-20T05:00:08;0.70;;;0.70;;
9124;SDS011;4597;48.730;9.114;2023-12-20T05:02:37;0.77;;;0.77;;
9124;SDS011;4597;48.730;9.114;2023-12-20T05:05:03;0.80;;;0.80;;
9124;SDS011;4597;48.730;9.114;2023-12-20T05:07:28;0.93;;;0.93;;
9124;SDS011;4597;48.730;9.114;2023-12-20T05:09:54;0.60;;;0.60;;
9124;SDS011;4597;48.730;9.114;2023-12-20T05:12:19;0.70;;;0.70;;
9124;SDS011;4597;48.730;9.114;2023-12-20T05:14:45;0.87;;;0.87;;
9124;SDS011;4597;48.730;9.114;2023-12-20T05:17:11;1.00;;;1.00;;
9124;SDS011;4597;48.730;9.114;2023-12-20T05:19:36;0.87;;;0.87;;
9124;SDS011;4597;48.730;9.114;2023-12-20T05:22:02;1.17;;;1.07;;
9124;SDS011;4597;48.730;9.114;2023-12-20T05:24:28;1.20;;;1.10;;
9124;SDS011;4597;48.730;9.114;2023-12-20T05:26:53;1.43;;;1.33;;
9124;SDS011;4597;48.730;9.114;2023-12-20T05:29:19;1.80;;;0.90;;
9124;SDS011;4597;48.730;9.114;2023-12-20T05:31:44;1.43;;;1.30;;
9124;SDS011;4597;48.730;9.114;2023-12-20T05:34:10;0.93;;;0.80;;
9124;SDS011;4597;48.730;9.114;2023-12-20T05:36:36;2.67;;;0.97;;
9124;SDS011;4597;48.730;9.114;2023-12-20T05:39:01;1.20;;;1.20;;
9124;SDS011;4597;48.730;9.114;2023-12-20T05:41:28;0.97;;;0.97;;
9124;SDS011;4597;48.730;9.114;2023-12-20T05:43:54;0.90;;;0.90;;
9124;SDS011;4597;48.730;9.114;2023-12-20T05:46:20;1.07;;;1.07;;
9124;SDS011;4597;48.730;9.114;2023-12-20T05:48:46;0.90;;;0.90;;
9124;SDS011;4597;48.730;9.114;2023-12-20T05:51:12;1.00;;;1.00;;
9124;SDS011;4597;48.730;9.114;2023-12-20T05:53:38;0.80;;;0.70;;
9124;SDS011;4597;48.730;9.114;2023-12-20T05:56:03;2.50;;;1.30;;
9124;SDS011;4597;48.730;9.114;2023-12-20T05:58:29;1.20;;;1.20;;
9124;SDS011;4597;48.730;9.114;2023-12-20T06:00:55;1.07;;;1.07;;
9124;SDS011;4597;48.730;9.114;2023-12-20T06:03:20;1.03;;;0.90;;
9124;SDS011;4597;48.730;9.114;2023-12-20T06:05:46;0.97;;;0.97;;
9124;SDS011;4597;48.730;9.114;2023-12-20T06:08:11;1.00;;;1.00;;
9124;SDS011;4597;48.730;9.114;2023-12-20T06:10:37;0.73;;;0.73;;
9124;SDS011;4597;48.730;9.114;2023-12-20T06:13:02;1.40;;;1.30;;
9124;SDS011;4597;48.730;9.114;2023-12-20T06:15:29;1.10;;;1.10;;
9124;SDS011;4597;48.730;9.114;2023-12-20T06:17:55;1.00;;;1.00;;
9124;SDS011;4597;48.730;9.114;2023-12-20T06:20:20;1.43;;;1.30;;
9124;SDS011;4597;48.730;9.114;2023-12-20T06:22:46;1.10;;;1.10;;
9124;SDS011;4597;48.730;9.114;2023-12-20T06:25:11;1.20;;;1.20;;
9124;SDS011;4597;48.730;9.114;2023-12-20T06:27:37;1.00;;;0.93;;
9124;SDS011;4597;48.730;9.114;2023-12-20T06:30:03;1.27;;;1.27;;
9124;SDS011;4597;48.730;9.114;2023-12-20T06:32:29;1.60;;;1.47;;
9124;SDS011;4597;48.730;9.114;2023-12-20T06:34:54;1.17;;;1.10;;
9124;SDS011;4597;48.730;9.114;2023-12-20T06:37:20;1.47;;;1.37;;
9124;SDS011;4597;48.730;9.114;2023-12-20T06:39:45;1.90;;;1.40;;
9124;SDS011;4597;48.730;9.114;2023-12-20T06:42:11;1.20;;;1.20;;
9124;SDS011;4597;48.730;9.114;2023-12-20T06:44:37;1.43;;;1.40;;
9124;SDS011;4597;48.730;9.114;2023-12-20T06:47:03;1.40;;;1.30;;
9124;SDS011;4597;48.730;9.114;2023-12-20T06:49:29;1.53;;;1.43;;
9124;SDS011;4597;48.730;9.114;2023-12-20T06:51:55;1.93;;;1.77;;
9124;SDS011;4597;48.730;9.114;2023-12-20T06:54:20;2.20;;;2.07;;
9124;SDS011;4597;48.730;9.114;2023-12-20T06:56:46;1.73;;;1.63;;
9124;SDS011;4597;48.730;9.114;2023-12-20T06:59:11;2.03;;;1.93;;
9124;SDS011;4597;48.730;9.114;2023-12-20T07:01:37;1.60;;;1.57;;
9124;SDS011;4597;48.730;9.114;2023-12-20T07:04:03;1.97;;;1.83;;
9124;SDS011;4597;48.730;9.114;2023-12-20T07:06:28;2.23;;;1.90;;
9124;SDS011;4597;48.730;9.114;2023-12-20T07:08:54;2.27;;;2.07;;
9124;SDS011;4597;48.730;9.114;2023-12-20T07:11:19;1.70;;;1.60;;
9124;SDS011;4597;48.730;9.114;2023-12-20T07:13:45;2.30;;;2.10;;
9124;SDS011;4597;48.730;9.114;2023-12-20T07:16:10;1.90;;;1.60;;
9124;SDS011;4597;48.730;9.114;2023-12-20T07:18:36;2.90;;;1.83;;
9124;SDS011;4597;48.730;9.114;2023-12-20T07:21:02;1.60;;;1.50;;
9124;SDS011;4597;48.730;9.114;2023-12-20T07:23:27;1.60;;;1.60;;
9124;SDS011;4597;48.730;9.114;2023-12-20T07:25:53;1.40;;;1.40;;
9124;SDS011;4597;48.730;9.114;2023-12-20T07:28:18;2.03;;;1.70;;
9124;SDS011;4597;48.730;9.114;2023-12-20T07:30:44;1.40;;;1.40;;
9124;SDS011;4597;48.730;9.114;2023-12-20T07:33:09;1.43;;;1.43;;
9124;SDS011;4597;48.730;9.114;2023-12-20T07:35:37;1.90;;;1.80;;
9124;SDS011;4597;48.730;9.114;2023-12-20T07:38:03;1.67;;;1.47;;
9124;SDS011;4597;48.730;9.114;2023-12-20T07:40:28;1.90;;;1.70;;
9124;SDS011;4597;48.730;9.114;2023-12-20T07:42:54;2.13;;;2.03;;
9124;SDS011;4597;48.730;9.114;2023-12-20T07:45:19;2.33;;;1.60;;
9124;SDS011;4597;48.730;9.114;2023-12-20T07:47:45;1.63;;;1.60;;
9124;SDS011;4597;48.730;9.114;2023-12-20T07:50:10;1.80;;;1.70;;
9124;SDS011;4597;48.730;9.114;2023-12-20T07:52:36;1.60;;;1.50;;
9124;SDS011;4597;48.730;9.114;2023-12-20T07:55:02;2.27;;;1.90;;
9124;SDS011;4597;48.730;9.114;2023-12-20T07:57:29;4.50;;;2.03;;
9124;SDS011;4597;48.730;9.114;2023-12-20T07:59:55;1.77;;;1.67;;
9124;SDS011;4597;48.730;9.114;2023-12-20T08:02:21;1.80;;;1.70;;
9124;SDS011;4597;48.730;9.114;2023-12-20T08:04:46;2.10;;;1.80;;
9124;SDS011;4597;48.730;9.114;2023-12-20T08:07:12;1.47;;;1.37;;
9124;SDS011;4597;48.730;9.114;2023-12-20T08:09:37;2.07;;;1.87;;
9124;SDS011;4597;48.730;9.114;2023-12-20T08:12:03;2.27;;;1.57;;
9124;SDS011;4597;48.730;9.114;2023-12-20T08:14:29;1.80;;;1.70;;
9124;SDS011;4597;48.730;9.114;2023-12-20T08:16:54;1.87;;;1.77;;
9124;SDS011;4597;48.730;9.114;2023-12-20T08:19:20;1.80;;;1.70;;
9124;SDS011;4597;48.730;9.114;2023-12-20T08:21:45;1.90;;;1.80;;
9124;SDS011;4597;48.730;9.114;2023-12-20T08:24:11;1.50;;;1.40;;
9124;SDS011;4597;48.730;9.114;2023-12-20T08:26:36;1.80;;;1.70;;
9124;SDS011;4597;48.730;9.114;2023-12-20T08:29:02;1.40;;;1.40;;
9124;SDS011;4597;48.730;9.114;2023-12-20T08:31:27;1.30;;;1.20;;
9124;SDS011;4597;48.730;9.114;2023-12-20T08:33:53;2.10;;;1.90;;
9124;SDS011;4597;48.730;9.114;2023-12-20T08:36:19;1.83;;;1.73;;
9124;SDS011;4597;48.730;9.114;2023-12-20T08:38:47;2.37;;;1.80;;
9124;SDS011;4597;48.730;9.114;2023-12-20T08:41:13;1.50;;;1.40;;
9124;SDS011;4597;48.730;9.114;2023-12-20T08:43:38;2.20;;;2.10;;
9124;SDS011;4597;48.730;9.114;2023-12-20T08:46:05;2.13;;;1.93;;
9124;SDS011;4597;48.730;9.114;2023-12-20T08:48:31;1.40;;;1.40;;
9124;SDS011;4597;48.730;9.114;2023-12-20T08:50:56;1.53;;;1.50;;
9124;SDS011;4597;48.730;9.114;2023-12-20T08:53:22;1.90;;;1.80;;
9124;SDS011;4597;48.730;9.114;2023-12-20T08:55:47;1.80;;;1.70;;
9124;SDS011;4597;48.730;9.114;2023-12-20T08:58:13;1.70;;;1.60;;
9124;SDS011;4597;48.730;9.114;2023-12-20T09:00:39;1.83;;;1.73;;
9124;SDS011;4597;48.730;9.114;2023-12-20T09:03:05;2.00;;;1.90;;
9124;SDS011;4597;48.730;9.114;2023-12-20T09:05:31;5.43;;;1.80;;
9124;SDS011;4597;48.730;9.114;2023-12-20T09:07:56;1.40;;;1.30;;
9124;SDS011;4597;48.730;9.114;2023-12-20T09:10:22;1.80;;;1.70;;
9124;SDS011;4597;48.730;9.114;2023-12-20T09:12:48;1.50;;;1.40;;
9124;SDS011;4597;48.730;9.114;2023-12-20T09:15:21;1.70;;;1.60;;
9124;SDS011;4597;48.730;9.114;2023-12-20T09:17:47;1.60;;;1.50;;
9124;SDS011;4597;48.730;9.114;2023-12-20T09:20:13;1.47;;;1.37;;
9124;SDS011;4597;48.730;9.114;2023-12-20T09:22:39;1.60;;;1.50;;
9124;SDS011;4597;48.730;9.114;2023-12-20T09:25:05;1.60;;;1.50;;
9124;SDS011;4597;48.730;9.114;2023-12-20T09:27:30;1.07;;;1.07;;
9124;SDS011;4597;48.730;9.114;2023-12-20T09:29:56;1.53;;;1.30;;
9124;SDS011;4597;48.730;9.114;2023-12-20T09:32:21;1.37;;;1.27;;
9124;SDS011;4597;48.730;9.114;2023-12-20T09:34:47;1.03;;;1.03;;
9124;SDS011;4597;48.730;9.114;2023-12-20T09:37:13;1.67;;;1.33;;
9124;SDS011;4597;48.730;9.114;2023-12-20T09:39:39;0.90;;;0.90;;
9124;SDS011;4597;48.730;9.114;2023-12-20T09:42:05;3.57;;;1.33;;
9124;SDS011;4597;48.730;9.114;2023-12-20T09:44:31;2.00;;;1.37;;
9124;SDS011;4597;48.730;9.114;2023-12-20T09:46:59;0.90;;;0.90;;
9124;SDS011;4597;48.730;9.114;2023-12-20T09:49:28;1.90;;;1.37;;
9124;SDS011;4597;48.730;9.114;2023-12-20T09:51:54;1.73;;;1.10;;
9124;SDS011;4597;48.730;9.114;2023-12-20T09:54:21;1.40;;;1.10;;
9124;SDS011;4597;48.730;9.114;2023-12-20T09:56:47;0.97;;;0.97;;
9124;SDS011;4597;48.730;9.114;2023-12-20T09:59:12;2.67;;;1.00;;
9124;SDS011;4597;48.730;9.114;2023-12-20T10:01:39;2.73;;;1.07;;
9124;SDS011;4597;48.730;9.114;2023-12-20T10:04:06;1.10;;;1.00;;
9124;SDS011;4597;48.730;9.114;2023-12-20T10:06:34;0.83;;;0.83;;
9124;SDS011;4597;48.730;9.114;2023-12-20T10:09:06;2.23;;;0.90;;
9124;SDS011;4597;48.730;9.114;2023-12-20T10:11:32;1.20;;;1.20;;
9124;SDS011;4597;48.730;9.114;2023-12-20T10:14:00;1.40;;;1.20;;
9124;SDS011;4597;48.730;9.114;2023-12-20T10:16:26;0.93;;;0.93;;
9124;SDS011;4597;48.730;9.114;2023-12-20T10:18:53;0.90;;;0.90;;
9124;SDS011;4597;48.730;9.114;2023-12-20T10:21:19;1.13;;;1.03;;
9124;SDS011;4597;48.730;9.114;2023-12-20T10:23:45;2.57;;;1.10;;
9124;SDS011;4597;48.730;9.114;2023-12-20T10:26:18;4.33;;;1.20;;
9124;SDS011;4597;48.730;9.114;2023-12-20T10:28:45;2.20;;;0.90;;
9124;SDS011;4597;48.730;9.114;2023-12-20T10:31:15;1.50;;;1.40;;
9124;SDS011;4597;48.730;9.114;2023-12-20T10:34:01;1.00;;;1.00;;
9124;SDS011;4597;48.730;9.114;2023-12-20T10:36:28;1.53;;;1.03;;
9124;SDS011;4597;48.730;9.114;2023-12-20T10:38:55;1.50;;;1.40;;
9124;SDS011;4597;48.730;9.114;2023-12-20T10:41:26;2.00;;;1.27;;
9124;SDS011;4597;48.730;9.114;2023-12-20T10:43:58;1.30;;;1.20;;
9124;SDS011;4597;48.730;9.114;2023-12-20T10:46:24;3.67;;;1.27;;
9124;SDS011;4597;48.730;9.114;2023-12-20T10:48:53;2.83;;;1.23;;
9124;SDS011;4597;48.730;9.114;2023-12-20T10:51:20;2.30;;;1.30;;
9124;SDS011;4597;48.730;9.114;2023-12-20T10:53:49;1.23;;;1.10;;
9124;SDS011;4597;48.730;9.114;2023-12-20T10:56:16;2.97;;;1.13;;
9124;SDS011;4597;48.730;9.114;2023-12-20T10:58:43;1.47;;;1.03;;
9124;SDS011;4597;48.730;9.114;2023-12-20T11:01:09;2.20;;;1.10;;
9124;SDS011;4597;48.730;9.114;2023-12-20T11:03:37;1.97;;;1.30;;
9124;SDS011;4597;48.730;9.114;2023-12-20T11:06:15;1.00;;;1.00;;
9124;SDS011;4597;48.730;9.114;2023-12-20T11:09:03;0.87;;;0.87;;
9124;SDS011;4597;48.730;9.114;2023-12-20T11:12:13;0.90;;;0.90;;
9124;SDS011;4597;48.730;9.114;2023-12-20T11:14:49;3.67;;;1.17;;
9124;SDS011;4597;48.730;9.114;2023-12-20T11:17:17;0.93;;;0.93;;
9124;SDS011;4597;48.730;9.114;2023-12-20T11:20:03;1.63;;;1.00;;
9124;SDS011;4597;48.730;9.114;2023-12-20T11:22:32;1.30;;;1.20;;
9124;SDS011;4597;48.730;9.114;2023-12-20T11:24:59;2.00;;;1.10;;
9124;SDS011;4597;48.730;9.114;2023-12-20T11:27:34;1.43;;;1.30;;
9124;SDS011;4597;48.730;9.114;2023-12-20T11:30:02;1.23;;;1.17;;
9124;SDS011;4597;48.730;9.114;2023-12-20T11:32:31;1.80;;;1.00;;
9124;SDS011;4597;48.730;9.114;2023-12-20T11:34:59;2.40;;;1.00;;
9124;SDS011;4597;48.730;9.114;2023-12-20T11:37:29;3.33;;;1.20;;
9124;SDS011;4597;48.730;9.114;2023-12-20T11:40:01;2.43;;;1.57;;
9124;SDS011;4597;48.730;9.114;2023-12-20T11:42:41;3.63;;;1.67;;
9124;SDS011;4597;48.730;9.114;2023-12-20T11:45:11;1.13;;;1.10;;
9124;SDS011;4597;48.730;9.114;2023-12-20T11:47:40;3.17;;;1.37;;
9124;SDS011;4597;48.730;9.114;2023-12-20T11:50:10;2.00;;;1.20;;
9124;SDS011;4597;48.730;9.114;2023-12-20T11:52:36;1.87;;;1.30;;
9124;SDS011;4597;48.730;9.114;2023-12-20T11:55:02;1.47;;;1.30;;
9124;SDS011;4597;48.730;9.114;2023-12-20T11:57:28;1.77;;;1.20;;
9124;SDS011;4597;48.730;9.114;2023-12-20T11:59:54;2.10;;;1.20;;
9124;SDS011;4597;48.730;9.114;2023-12-20T12:02:21;2.53;;;1.37;;
9124;SDS011;4597;48.730;9.114;2023-12-20T12:04:48;2.10;;;1.60;;
9124;SDS011;4597;48.730;9.114;2023-12-20T12:07:15;1.50;;;1.20;;
9124;SDS011;4597;48.730;9.114;2023-12-20T12:09:41;0.97;;;0.90;;
9124;SDS011;4597;48.730;9.114;2023-12-20T12:12:07;2.43;;;1.23;;
9124;SDS011;4597;48.730;9.114;2023-12-20T12:14:33;2.73;;;1.20;;
9124;SDS011;4597;48.730;9.114;2023-12-20T12:17:00;2.53;;;1.30;;
9124;SDS011;4597;48.730;9.114;2023-12-20T12:19:26;1.50;;;1.40;;
9124;SDS011;4597;48.730;9.114;2023-12-20T12:22:05;1.23;;;1.13;;
9124;SDS011;4597;48.730;9.114;2023-12-20T12:24:44;3.33;;;1.13;;
9124;SDS011;4597;48.730;9.114;2023-12-20T12:27:10;2.27;;;1.27;;
9124;SDS011;4597;48.730;9.114;2023-12-20T12:29:37;1.00;;;1.00;;
9124;SDS011;4597;48.730;9.114;2023-12-20T12:32:06;1.83;;;1.10;;
9124;SDS011;4597;48.730;9.114;2023-12-20T12:34:33;0.90;;;0.90;;
9124;SDS011;4597;48.730;9.114;2023-12-20T12:37:02;1.30;;;1.20;;
9124;SDS011;4597;48.730;9.114;2023-12-20T12:39:30;0.70;;;0.70;;
9124;SDS011;4597;48.730;9.114;2023-12-20T12:41:56;1.33;;;1.17;;
9124;SDS011;4597;48.730;9.114;2023-12-20T12:44:22;1.37;;;1.00;;
9124;SDS011;4597;48.730;9.114;2023-12-20T12:46:51;3.00;;;1.93;;
9124;SDS011;4597;48.730;9.114;2023-12-20T12:49:18;1.63;;;1.30;;
9124;SDS011;4597;48.730;9.114;2023-12-20T12:51:44;1.20;;;1.20;;
9124;SDS011;4597;48.730;9.114;2023-12-20T12:54:10;2.20;;;1.00;;
9124;SDS011;4597;48.730;9.114;2023-12-20T12:56:36;0.90;;;0.90;;
9124;SDS011;4597;48.730;9.114;2023-12-20T12:59:01;1.90;;;1.20;;
9124;SDS011;4597;48.730;9.114;2023-12-20T13:01:27;1.57;;;1.00;;
9124;SDS011;4597;48.730;9.114;2023-12-20T13:03:53;1.60;;;0.90;;
9124;SDS011;4597;48.730;9.114;2023-12-20T13:06:19;2.80;;;1.10;;
9124;SDS011;4597;48.730;9.114;2023-12-20T13:08:45;4.00;;;1.20;;
9124;SDS011;4597;48.730;9.114;2023-12-20T13:11:10;1.17;;;1.10;;
9124;SDS011;4597;48.730;9.114;2023-12-20T13:13:36;1.83;;;1.03;;
9124;SDS011;4597;48.730;9.114;2023-12-20T13:16:01;2.63;;;1.10;;
9124;SDS011;4597;48.730;9.114;2023-12-20T13:18:27;1.53;;;1.13;;
9124;SDS011;4597;48.730;9.114;2023-12-20T13:20:52;1.40;;;1.10;;
9124;SDS011;4597;48.730;9.114;2023-12-20T13:23:18;2.90;;;0.97;;
9124;SDS011;4597;48.730;9.114;2023-12-20T13:25:43;3.60;;;1.50;;
9124;SDS011;4597;48.730;9.114;2023-12-20T13:28:12;1.07;;;1.07;;
9124;SDS011;4597;48.730;9.114;2023-12-20T13:30:38;2.93;;;0.97;;
9124;SDS011;4597;48.730;9.114;2023-12-20T13:33:04;1.87;;;1.30;;
9124;SDS011;4597;48.730;9.114;2023-12-20T13:35:31;3.53;;;1.30;;
9124;SDS011;4597;48.730;9.114;2023-12-20T13:37:57;4.10;;;1.27;;
9124;SDS011;4597;48.730;9.114;2023-12-20T13:40:23;2.83;;;1.70;;
9124;SDS011;4597;48.730;9.114;2023-12-20T13:42:49;1.97;;;1.00;;
9124;SDS011;4597;48.730;9.114;2023-12-20T13:45:15;1.73;;;1.17;;
9124;SDS011;4597;48.730;9.114;2023-12-20T13:47:40;0.97;;;0.90;;
9124;SDS011;4597;48.730;9.114;2023-12-20T13:50:06;2.70;;;1.10;;
9124;SDS011;4597;48.730;9.114;2023-12-20T13:52:32;1.37;;;1.30;;
9124;SDS011;4597;48.730;9.114;2023-12-20T13:54:57;1.77;;;1.03;;
9124;SDS011;4597;48.730;9.114;2023-12-20T13:57:23;3.57;;;1.23;;
9124;SDS011;4597;48.730;9.114;2023-12-20T13:59:48;1.67;;;1.57;;
9124;SDS011;4597;48.730;9.114;2023-12-20T14:02:14;2.30;;;1.07;;
9124;SDS011;4597;48.730;9.114;2023-12-20T14:04:41;1.30;;;1.00;;
9124;SDS011;4597;48.730;9.114;2023-12-20T14:07:07;2.03;;;1.10;;
9124;SDS011;4597;48.730;9.114;2023-12-20T14:09:34;2.70;;;1.33;;
9124;SDS011;4597;48.730;9.114;2023-12-20T14:12:00;1.43;;;1.30;;
9124;SDS011;4597;48.730;9.114;2023-12-20T14:14:25;3.03;;;1.47;;
9124;SDS011;4597;48.730;9.114;2023-12-20T14:16:50;2.27;;;1.27;;
9124;SDS011;4597;48.730;9.114;2023-12-20T14:19:16;4.87;;;1.73;;
9124;SDS011;4597;48.730;9.114;2023-12-20T14:21:42;1.50;;;1.20;;
9124;SDS011;4597;48.730;9.114;2023-12-20T14:24:10;1.50;;;1.40;;
9124;SDS011;4597;48.730;9.114;2023-12-20T14:26:39;4.97;;;1.60;;
9124;SDS011;4597;48.730;9.114;2023-12-20T14:29:08;2.13;;;0.90;;
9124;SDS011;4597;48.730;9.114;2023-12-20T14:31:34;3.07;;;1.70;;
9124;SDS011;4597;48.730;9.114;2023-12-20T14:34:00;3.00;;;1.53;;
9124;SDS011;4597;48.730;9.114;2023-12-20T14:36:28;3.43;;;1.50;;
9124;SDS011;4597;48.730;9.114;2023-12-20T14:38:55;2.10;;;1.10;;
9124;SDS011;4597;48.730;9.114;2023-12-20T14:41:21;3.43;;;1.07;;
9124;SDS011;4597;48.730;9.114;2023-12-20T14:43:49;1.97;;;1.47;;
9124;SDS011;4597;48.730;9.114;2023-12-20T14:46:16;1.60;;;1.10;;
9124;SDS011;4597;48.730;9.114;2023-12-20T14:48:42;3.63;;;1.33;;
9124;SDS011;4597;48.730;9.114;2023-12-20T14:51:07;3.67;;;1.40;;
9124;SDS011;4597;48.730;9.114;2023-12-20T14:53:33;1.40;;;1.30;;
9124;SDS011;4597;48.730;9.114;2023-12-20T14:56:01;2.50;;;1.30;;
9124;SDS011;4597;48.730;9.114;2023-12-20T14:58:27;2.97;;;1.30;;
9124;SDS011;4597;48.730;9.114;2023-12-20T15:00:54;1.87;;;1.30;;
9124;SDS011;4597;48.730;9.114;2023-12-20T15:03:21;2.23;;;1.23;;
9124;SDS011;4597;48.730;9.114;2023-12-20T15:05:46;3.30;;;1.40;;
9124;SDS011;4597;48.730;9.114;2023-12-20T15:08:12;1.57;;;1.00;;
9124;SDS011;4597;48.730;9.114;2023-12-20T15:10:38;2.97;;;1.23;;